Aérodrome :
LOGIN :

S'inscrire | Disclaimer

   EN    FR    IT 

 










Légende :    VFR   VFR Marginal   IFR   IFR Intensif   IFR Très Intensif
Visi : 
Plafond : 
>= 8 km
>= 3000ft
5 à 8 km
1000 à 3000 ft
1500m à 5 km
500 à 1000 ft
800 à 1500m
200 à 500 ft
< 800m
< 200 ft
Symboles :   Orages  Brouillard  Fortes neiges  Fortes précipitations  Vent > 20 kt
SIGMETs :   Divers  Orages  Givrage  Turbulence  Onde Orograph.  Cendres Volcan.







- Altitude de l'aérodrome : 297 ft
- Code IATA : UIP
- Voir les cartes d'approche


LFRQ - Quimper Pluguffan

DERNIER METAR :
  • 190800Z AUTO 03002KT 0200 0150 R28/M0200N FG VV/// 01/01 Q1022 BECMG 19010KT 9999 NSW SCT012

METARs EXPIRÉS :
  • 190730Z AUTO 03002KT 0350 0300 R28/0375N UP FG VV/// 00/00 Q1022 BECMG 19010KT 9999 NSW SCT012
  • 190700Z AUTO 04002KT 0450 R28/0550N FZFG VV/// M00/M00 Q1021 BECMG 19010KT 9999 NSW SCT012
  • 190630Z AUTO 05003KT 0550 R28/0650D FZFG VV/// M00/M00 Q1021 BECMG 19010KT 9999 NSW SCT012
  • 190600Z AUTO 00000KT 0700 0600 R28/0900U FZFG VV/// M00/M00 Q1021 NOSIG
  • 190530Z AUTO 00000KT 1500 1200 R28/1900D BR VV/// M00/M00 Q1021 BECMG 0600 FG

TAF TAF LFRQ
Valide du 19 à 06h jusqu'au 20 à 06h UTC


190500Z 1906/2006 VRB03KT 0600 FG VV///
BECMG 1908/1911 19010KT 9999 NSW SCT012
BECMG 1921/1924 4000 BR BKN005
TEMPO 2000/2006 0800 BCFG OVC002
Pas de NOTAMs connus pour ce terrain.
2 SIGMETs publiés pour la FIR Brest (LFRR) :
 
Turbulence forte
LFRR SIGMET 3 VALID 190800/191200 LFPW
LFRR BREST FIR/UIR SEV TURB FCST SE OF LINE N4800 W00015 - N4415 W00430 FL200/300 STNR NC=
Turbulence forte
LFRR SIGMET 2 VALID 190410/190800 LFPW
LFRR BREST FIR/UIR SEV TURB FCST WI N4630 W00130 - N4730 W00145 - N4830 W00015 - N4730 W00015 - N4630 W00130 FL180/280 MOV SE 10KT NC=



MET'MAP, la Météo Aéronautique d'un coup d'oeil ! - Copyright ORBIFLY Décembre 2007 - Disclaimer

ORBIFLY MET'MAP TEAM :

Programmation & Développement : Alexandra Zaïnal
Conception & Développement : Baudouin d'Aumeries
Co-Programmation & Développement : Marc-Olivier Méhu
Soutien technique & logistique : Manuel Goepfert

Contact : metmap@orbifly.com




SOURCES & CREDITS :

   NOAA